Time;durP1;ratioP1;P1;durP2;ratioP2;P2;SDS_P1;SDS_P2;PMS_P1;PMS_P2;Temp;Humidity;BMP_temperature;BMP_pressure;BME280_temperature;BME280_humidity;BME280_pressure;Samples;Min_cycle;Max_cycle;Signal;HPM_P1;HPM_P2
2023/02/04 00:00:15;;;;;;;4.70;1.87;;;6.50;99.90;;;;;;5013959;28;20456;-85
2023/02/04 00:02:42;;;;;;;3.50;2.73;;;;;;;;;;5013853;28;20459;-82
2023/02/04 00:05:10;;;;;;;2.10;1.47;;;6.60;99.90;;;;;;5013946;28;20452;-84
2023/02/04 00:07:38;;;;;;;4.93;3.20;;;;;;;;;;5014390;28;20496;-86
2023/02/04 00:10:06;;;;;;;2.83;2.10;;;6.70;99.90;;;;;;5029517;28;20538;-83
2023/02/04 00:12:33;;;;;;;3.27;1.93;;;;;;;;;;5032790;28;20499;-82
2023/02/04 00:15:01;;;;;;;1.40;1.07;;;6.60;99.90;;;;;;5032988;28;20456;-86
2023/02/04 00:17:28;;;;;;;2.30;1.70;;;;;;;;;;5032790;28;20978;-85
2023/02/04 00:19:56;;;;;;;3.20;2.20;;;;;;;;;;5032470;28;20474;-84
2023/02/04 00:22:25;;;;;;;2.50;1.67;;;;;;;;;;5032877;28;20486;-88
2023/02/04 00:24:52;;;;;;;2.70;2.40;;;;;;;;;;5031600;28;20494;-82
2023/02/04 00:27:19;;;;;;;2.07;1.87;;;;;;;;;;5032999;28;20495;-90
2023/02/04 00:29:46;;;;;;;1.77;1.40;;;;;;;;;;5033052;28;20460;-85
2023/02/04 00:32:15;;;;;;;2.80;1.60;;;;;;;;;;5032895;28;20451;-84
2023/02/04 00:34:42;;;;;;;2.73;1.77;;;;;;;;;;5032912;28;20451;-88
2023/02/04 00:37:09;;;;;;;0.93;0.83;;;;;;;;;;5033327;28;20471;-87
2023/02/04 00:39:36;;;;;;;3.40;1.97;;;;;;;;;;5033339;28;20455;-84
2023/02/04 00:42:04;;;;;;;2.17;1.97;;;;;;;;;;5031651;28;20444;-88
2023/02/04 00:44:31;;;;;;;1.83;1.70;;;;;;;;;;5033400;28;20448;-85
2023/02/04 00:46:58;;;;;;;1.60;1.50;;;;;;;;;;5032885;28;20998;-90
2023/02/04 00:49:27;;;;;;;2.27;2.07;;;;;;;;;;5032870;28;20447;-88
2023/02/04 00:51:54;;;;;;;2.30;1.77;;;;;;;;;;5032822;28;20451;-88
2023/02/04 00:54:21;;;;;;;3.23;2.33;;;;;;;;;;5032798;28;20451;-84
2023/02/04 00:56:48;;;;;;;3.30;2.20;;;;;;;;;;5031678;28;20547;-89
2023/02/04 00:59:15;;;;;;;2.80;2.23;;;;;;;;;;5032988;28;20454;-87
2023/02/04 01:01:42;;;;;;;2.97;2.30;;;;;;;;;;5032687;28;20451;-86
2023/02/04 01:04:10;;;;;;;6.70;2.73;;;;;;;;;;5036185;28;20851;-89
2023/02/04 01:06:38;;;;;;;1.20;0.80;;;6.70;99.90;;;;;;5036553;28;21005;-87
2023/02/04 01:09:05;;;;;;;2.80;2.33;;;;;;;;;;5037310;28;20451;-88
2023/02/04 01:11:33;;;;;;;1.80;1.07;;;;;;;;;;5036661;28;20451;-86
2023/02/04 01:14:00;;;;;;;2.70;2.27;;;;;;;;;;5036794;28;20550;-88
2023/02/04 01:16:27;;;;;;;4.07;2.20;;;;;;;;;;5036927;28;20447;-87
2023/02/04 01:18:55;;;;;;;2.30;2.10;;;;;;;;;;5036458;28;20813;-83
2023/02/04 01:21:22;;;;;;;3.03;1.43;;;;;;;;;;5036313;28;20475;-85
2023/02/04 01:23:50;;;;;;;1.40;1.07;;;6.80;99.90;;;;;;5036770;28;20803;-88
2023/02/04 01:26:18;;;;;;;2.13;1.93;;;;;;;;;;5035008;28;20479;-88
2023/02/04 01:28:45;;;;;;;1.33;0.83;;;;;;;;;;5036766;28;20474;-86
2023/02/04 01:31:12;;;;;;;2.60;1.60;;;;;;;;;;5036776;28;20451;-87
2023/02/04 01:33:39;;;;;;;1.63;1.40;;;;;;;;;;5036962;28;20470;-86
2023/02/04 01:36:06;;;;;;;1.83;1.27;;;;;;;;;;5036641;28;20478;-87
2023/02/04 01:38:33;;;;;;;1.80;1.33;;;;;;;;;;5033829;28;20470;-87
2023/02/04 01:41:02;;;;;;;2.40;1.57;;;6.60;99.90;;;;;;5034865;28;20454;-82
2023/02/04 01:43:30;;;;;;;1.30;1.20;;;;;;;;;;5035963;28;20479;-86
2023/02/04 01:45:58;;;;;;;4.60;0.70;;;;;;;;;;5035851;28;20462;-85
2023/02/04 01:48:25;;;;;;;1.63;1.40;;;;;;;;;;5036105;28;20452;-82
2023/02/04 01:50:53;;;;;;;1.30;1.03;;;6.40;99.90;;;;;;5036024;28;20462;-86
2023/02/04 01:53:22;;;;;;;0.90;0.80;;;6.50;99.90;;;;;;5036195;28;20447;-89
2023/02/04 01:55:49;;;;;;;1.10;1.00;;;;;;;;;;5034929;28;20447;-84
2023/02/04 01:58:18;;;;;;;3.30;0.80;;;6.20;99.90;;;;;;5036036;28;20443;-88
2023/02/04 02:00:45;;;;;;;2.07;0.87;;;;;;;;;;5035586;28;20458;-88
2023/02/04 02:03:12;;;;;;;2.73;1.37;;;;;;;;;;5035597;28;20447;-86
2023/02/04 02:05:43;;;;;;;1.43;0.60;;;6.00;99.90;;;;;;5036239;28;20494;-84
2023/02/04 02:08:11;;;;;;;2.10;0.90;;;6.00;99.90;;;;;;5035855;28;20501;-86
2023/02/04 02:10:40;;;;;;;2.50;1.00;;;6.00;99.90;;;;;;5035003;28;20478;-84
2023/02/04 02:13:11;;;;;;;0.90;0.50;;;6.00;99.90;;;;;;5035936;28;20458;-82
2023/02/04 02:15:39;;;;;;;1.53;0.93;;;;;;;;;;5001756;28;20806;-86
2023/02/04 02:18:07;;;;;;;4.37;0.87;;;;;;;;;;5036409;28;20947;-85
2023/02/04 02:20:34;;;;;;;3.43;1.07;;;;;;;;;;5035811;28;20475;-84
2023/02/04 02:23:06;;;;;;;8.13;1.30;;;5.80;99.90;;;;;;5035985;28;20443;-85
2023/02/04 02:25:34;;;;;;;4.10;1.30;;;;;;;;;;5040827;28;20475;-82
2023/02/04 02:28:02;;;;;;;3.20;1.20;;;;;;;;;;5045895;28;20498;-81
2023/02/04 02:30:29;;;;;;;4.13;0.97;;;;;;;;;;5036852;28;20812;-82
2023/02/04 02:32:57;;;;;;;1.83;1.20;;;;;;;;;;5035284;28;20447;-83
2023/02/04 02:35:24;;;;;;;1.57;0.90;;;;;;;;;;5035197;28;20477;-81
2023/02/04 02:37:51;;;;;;;1.27;0.80;;;;;;;;;;5035204;28;20443;-82
2023/02/04 02:40:18;;;;;;;5.53;1.10;;;5.80;99.90;;;;;;5033897;28;20538;-82
2023/02/04 02:42:50;;;;;;;3.57;0.70;;;5.90;99.90;;;;;;5035033;28;20454;-83
2023/02/04 02:45:22;;;;;;;4.47;1.00;;;5.80;99.90;;;;;;5035012;28;20448;-81
2023/02/04 02:47:49;;;;;;;2.40;0.93;;;;;;;;;;5034939;28;20503;-81
2023/02/04 02:50:19;;;;;;;1.80;0.80;;;5.80;99.90;;;;;;5035202;28;20452;-82
2023/02/04 02:52:47;;;;;;;1.23;0.60;;;;;;;;;;5034942;28;20546;-84
2023/02/04 02:55:16;;;;;;;9.80;1.77;;;5.80;99.90;;;;;;5033735;28;20447;-81
2023/02/04 02:57:43;;;;;;;5.70;1.50;;;;;;;;;;5034874;28;20451;-82
2023/02/04 03:00:16;;;;;;;2.37;1.20;;;5.70;99.90;;;;;;5034763;28;20460;-80
2023/02/04 03:02:44;;;;;;;5.27;1.07;;;;;;;;;;5034680;28;20459;-83
2023/02/04 03:05:11;;;;;;;8.40;0.80;;;;;;;;;;5034753;28;20671;-81
2023/02/04 03:07:38;;;;;;;6.03;1.47;;;;;;;;;;5034591;28;20532;-82
2023/02/04 03:10:05;;;;;;;3.17;1.20;;;5.70;99.90;;;;;;5033394;28;20447;-83
2023/02/04 03:12:33;;;;;;;5.57;1.00;;;;;;;;;;5034423;28;20448;-81
2023/02/04 03:15:00;;;;;;;4.33;1.20;;;;;;;;;;5034577;28;20799;-82
2023/02/04 03:17:29;;;;;;;2.40;0.80;;;5.70;99.90;;;;;;5034518;28;20455;-82
2023/02/04 03:19:56;;;;;;;1.57;1.17;;;;;;;;;;5034172;28;20487;-80
2023/02/04 03:22:23;;;;;;;3.10;1.10;;;;;;;;;;5034180;28;20502;-81
2023/02/04 03:24:50;;;;;;;3.43;1.33;;;;;;;;;;5033857;28;20454;-83
2023/02/04 03:27:17;;;;;;;2.50;1.00;;;;;;;;;;5033549;28;20498;-81
2023/02/04 03:29:44;;;;;;;3.27;1.27;;;;;;;;;;5034263;28;20455;-80
2023/02/04 03:32:12;;;;;;;12.80;6.07;;;;;;;;;;5034124;28;20443;-81
2023/02/04 03:34:40;;;;;;;3.43;1.27;;;5.80;99.90;;;;;;5033912;28;20486;-82
2023/02/04 03:37:07;;;;;;;2.87;1.40;;;;;;;;;;5034112;28;20450;-83
2023/02/04 03:39:34;;;;;;;7.27;1.40;;;;;;;;;;5034060;28;20455;-83
2023/02/04 03:42:01;;;;;;;3.20;1.03;;;;;;;;;;5032792;28;20479;-82
2023/02/04 03:44:28;;;;;;;1.73;1.07;;;;;;;;;;5033990;28;20447;-81
2023/02/04 03:46:55;;;;;;;2.77;1.27;;;;;;;;;;5033738;28;20821;-83
2023/02/04 03:49:22;;;;;;;3.33;1.27;;;;;;;;;;5033877;28;20858;-80
2023/02/04 03:51:51;;;;;;;4.33;1.63;;;5.60;99.90;;;;;;5033811;28;20451;-81
2023/02/04 03:54:18;;;;;;;2.13;1.20;;;;;;;;;;5033764;28;20459;-84
2023/02/04 03:56:45;;;;;;;2.70;1.40;;;;;;;;;;5032469;28;20447;-83
2023/02/04 03:59:12;;;;;;;2.30;1.77;;;;;;;;;;5033545;28;20542;-83
2023/02/04 04:01:39;;;;;;;1.90;1.20;;;;;;;;;;5033494;28;20448;-83
2023/02/04 04:04:06;;;;;;;5.33;1.60;;;;;;;;;;5033650;28;20815;-81
2023/02/04 04:06:33;;;;;;;3.53;1.37;;;;;;;;;;5034288;28;20451;-82
2023/02/04 04:09:01;;;;;;;3.43;1.80;;;5.40;99.90;;;;;;5034888;28;20811;-81
2023/02/04 04:11:28;;;;;;;1.77;1.20;;;;;;;;;;5032610;28;20458;-82
2023/02/04 04:13:55;;;;;;;4.40;1.73;;;;;;;;;;5033364;28;20456;-82
2023/02/04 04:16:22;;;;;;;2.47;1.40;;;;;;;;;;5033226;28;20459;-80
2023/02/04 04:18:49;;;;;;;3.17;1.50;;;;;;;;;;5033227;28;20451;-80
2023/02/04 04:21:16;;;;;;;3.67;0.93;;;;;;;;;;5032954;28;20475;-80
2023/02/04 04:23:43;;;;;;;1.13;1.03;;;;;;;;;;5033149;28;20447;-81
2023/02/04 04:26:11;;;;;;;1.30;1.13;;;5.50;99.90;;;;;;5031952;28;20454;-80
2023/02/04 04:28:38;;;;;;;6.63;1.80;;;;;;;;;;5032951;28;21013;-81
2023/02/04 04:31:06;;;;;;;4.57;1.77;;;;;;;;;;5032980;28;20946;-82
2023/02/04 04:33:33;;;;;;;2.10;1.63;;;;;;;;;;5033055;28;20478;-84
2023/02/04 04:36:01;;;;;;;5.77;1.70;;;5.60;99.90;;;;;;5032952;28;20452;-84
2023/02/04 04:38:28;;;;;;;1.80;1.60;;;;;;;;;;5032285;28;20458;-80
2023/02/04 04:40:55;;;;;;;2.30;1.30;;;;;;;;;;5031818;28;20447;-81
2023/02/04 04:43:23;;;;;;;2.53;1.57;;;5.60;99.90;;;;;;5032929;28;20450;-81
2023/02/04 04:45:50;;;;;;;4.43;1.67;;;;;;;;;;5032868;28;20451;-80
2023/02/04 04:48:17;;;;;;;5.60;2.00;;;;;;;;;;5032870;28;20538;-82
2023/02/04 04:50:44;;;;;;;9.20;1.73;;;;;;;;;;5032853;28;20454;-79
2023/02/04 04:53:11;;;;;;;4.60;2.00;;;;;;;;;;5032994;28;20455;-81
2023/02/04 04:55:38;;;;;;;8.93;2.20;;;;;;;;;;5031761;28;20507;-81
2023/02/04 04:58:05;;;;;;;5.93;1.90;;;;;;;;;;5032887;28;20977;-83
2023/02/04 05:00:34;;;;;;;1.87;1.67;;;5.60;99.90;;;;;;5034270;28;20818;-82
2023/02/04 05:03:01;;;;;;;3.57;1.67;;;;;;;;;;5032999;28;20457;-82
2023/02/04 05:05:28;;;;;;;7.03;2.73;;;;;;;;;;5032866;28;20448;-82
2023/02/04 05:07:56;;;;;;;4.67;2.20;;;;;;;;;;5032864;28;20499;-81
2023/02/04 05:10:23;;;;;;;2.40;1.70;;;;;;;;;;5031600;28;20566;-83
2023/02/04 05:12:50;;;;;;;5.97;2.40;;;;;;;;;;5032870;28;20459;-83
2023/02/04 05:15:17;;;;;;;4.57;2.10;;;;;;;;;;5033075;28;20452;-82
2023/02/04 05:17:45;;;;;;;2.30;2.10;;;5.40;99.90;;;;;;5032972;28;20459;-83
2023/02/04 05:20:12;;;;;;;4.77;2.43;;;;;;;;;;5032749;28;20464;-79
2023/02/04 05:22:39;;;;;;;6.30;3.03;;;;;;;;;;5033010;28;20451;-81
2023/02/04 05:25:07;;;;;;;8.97;2.60;;;;;;;;;;5031149;28;20459;-84
2023/02/04 05:27:34;;;;;;;4.27;2.50;;;;;;;;;;5032683;28;20487;-82
2023/02/04 05:30:01;;;;;;;3.80;2.60;;;;;;;;;;5032868;28;20482;-83
2023/02/04 05:32:28;;;;;;;4.87;2.73;;;;;;;;;;5033869;28;20452;-81
2023/02/04 05:34:56;;;;;;;4.90;2.00;;;5.30;99.90;;;;;;5032759;28;20836;-81
2023/02/04 05:37:23;;;;;;;5.53;2.53;;;;;;;;;;5032556;28;20452;-82
2023/02/04 05:39:50;;;;;;;5.23;2.00;;;;;;;;;;5032423;28;20462;-82
2023/02/04 05:42:17;;;;;;;6.20;2.73;;;;;;;;;;5032267;28;20459;-81
2023/02/04 05:44:44;;;;;;;5.03;2.17;;;;;;;;;;5032561;28;20448;-82
2023/02/04 05:47:11;;;;;;;4.27;2.30;;;;;;;;;;5032594;28;20470;-84
2023/02/04 05:49:38;;;;;;;6.70;2.80;;;;;;;;;;5035156;28;20806;-83
2023/02/04 05:52:06;;;;;;;8.83;2.47;;;5.40;99.90;;;;;;5036314;28;20966;-83
2023/02/04 05:54:33;;;;;;;9.73;3.90;;;;;;;;;;5036174;28;20447;-83
2023/02/04 05:57:00;;;;;;;4.60;2.20;;;;;;;;;;5035244;28;20456;-79
2023/02/04 05:59:27;;;;;;;5.63;2.67;;;;;;;;;;5036104;28;20447;-83
2023/02/04 06:01:55;;;;;;;5.20;2.80;;;;;;;;;;5036148;28;20451;-82
2023/02/04 06:04:22;;;;;;;3.83;2.60;;;;;;;;;;5039889;28;20451;-83
2023/02/04 06:06:49;;;;;;;6.07;3.07;;;;;;;;;;5048593;28;20470;-80
2023/02/04 06:09:17;;;;;;;2.73;2.27;;;5.30;99.90;;;;;;5042458;28;20491;-80
2023/02/04 06:11:44;;;;;;;6.63;3.07;;;;;;;;;;5034545;28;20448;-80
2023/02/04 06:14:11;;;;;;;7.33;2.63;;;;;;;;;;5035661;28;20455;-83
2023/02/04 06:16:38;;;;;;;5.00;4.23;;;;;;;;;;5035697;28;20823;-82
2023/02/04 06:19:05;;;;;;;9.70;3.80;;;;;;;;;;5035651;28;20451;-83
2023/02/04 06:21:32;;;;;;;5.70;3.73;;;;;;;;;;5035325;28;20479;-82
2023/02/04 06:23:59;;;;;;;5.70;3.30;;;;;;;;;;5035514;28;20447;-80
2023/02/04 06:26:27;;;;;;;12.43;4.50;;;5.20;99.90;;;;;;5034346;28;20458;-83
2023/02/04 06:28:54;;;;;;;6.90;3.00;;;;;;;;;;5035506;28;20499;-81
2023/02/04 06:31:21;;;;;;;6.57;3.40;;;;;;;;;;5035421;28;20454;-83
2023/02/04 06:33:48;;;;;;;8.53;3.80;;;;;;;;;;5035295;28;20471;-81
2023/02/04 06:36:15;;;;;;;8.57;3.33;;;;;;;;;;5036664;28;20447;-83
2023/02/04 06:38:42;;;;;;;5.60;3.30;;;;;;;;;;5035413;28;20805;-81
2023/02/04 06:41:09;;;;;;;10.40;3.10;;;;;;;;;;5033976;28;20943;-79
2023/02/04 06:43:37;;;;;;;7.30;3.20;;;5.20;99.90;;;;;;5035221;28;20954;-81
2023/02/04 06:46:04;;;;;;;10.93;3.60;;;;;;;;;;5035235;28;20451;-81
2023/02/04 06:48:31;;;;;;;13.13;4.40;;;;;;;;;;5034990;28;20495;-81
2023/02/04 06:50:58;;;;;;;11.43;3.80;;;;;;;;;;5035194;28;20447;-82
2023/02/04 06:53:26;;;;;;;7.10;3.90;;;;;;;;;;5035184;28;20451;-81
2023/02/04 06:55:53;;;;;;;10.53;3.90;;;;;;;;;;5033905;28;20455;-80
2023/02/04 06:58:20;;;;;;;11.40;3.87;;;;;;;;;;5035438;28;20463;-82
2023/02/04 07:00:48;;;;;;;12.20;4.80;;;5.10;99.90;;;;;;5035141;28;20448;-82
2023/02/04 07:03:15;;;;;;;12.80;4.73;;;;;;;;;;5036729;28;20452;-82
2023/02/04 07:05:42;;;;;;;17.97;5.30;;;;;;;;;;5034842;28;20452;-83
2023/02/04 07:08:09;;;;;;;14.63;4.70;;;;;;;;;;5034941;28;20491;-82
2023/02/04 07:10:36;;;;;;;20.90;5.37;;;;;;;;;;5033572;28;20810;-83
2023/02/04 07:13:03;;;;;;;10.20;4.73;;;;;;;;;;5034511;28;20978;-82
2023/02/04 07:15:30;;;;;;;14.17;4.63;;;;;;;;;;5034281;28;20459;-82
2023/02/04 07:17:59;;;;;;;11.57;4.53;;;5.10;99.90;;;;;;5034241;28;20521;-81
2023/02/04 07:20:26;;;;;;;14.30;4.97;;;;;;;;;;5034185;28;20484;-81
2023/02/04 07:22:53;;;;;;;10.47;4.80;;;;;;;;;;5034369;28;20570;-82
2023/02/04 07:25:20;;;;;;;11.53;3.60;;;;;;;;;;5033058;28;20443;-82
2023/02/04 07:27:47;;;;;;;10.23;4.93;;;;;;;;;;5034368;28;20458;-81
2023/02/04 07:30:14;;;;;;;8.90;3.80;;;;;;;;;;5034233;28;20446;-82
2023/02/04 07:32:41;;;;;;;14.07;4.47;;;;;;;;;;5036434;28;20480;-80
2023/02/04 07:35:10;;;;;;;9.33;5.20;;;5.40;99.90;;;;;;5033295;28;20483;-82
2023/02/04 07:37:37;;;;;;;11.47;4.43;;;;;;;;;;5034536;28;20475;-86
2023/02/04 07:40:05;;;;;;;10.30;5.33;;;;;;;;;;5032788;28;20444;-83
2023/02/04 07:42:32;;;;;;;13.13;5.13;;;;;;;;;;5033975;28;20452;-83
2023/02/04 07:44:59;;;;;;;7.03;3.80;;;;;;;;;;5033879;28;20452;-82
2023/02/04 07:47:26;;;;;;;10.67;4.27;;;;;;;;;;5033885;28;20451;-83
2023/02/04 07:49:55;;;;;;;15.80;4.63;;;;;;;;;;5033796;28;20491;-80
2023/02/04 07:52:23;;;;;;;13.00;4.20;;;5.10;99.90;;;;;;5035330;28;20463;-83
2023/02/04 07:54:51;;;;;;;10.63;4.50;;;;;;;;;;5037091;28;20957;-83
2023/02/04 07:57:18;;;;;;;19.33;4.67;;;;;;;;;;5036517;28;21052;-84
2023/02/04 07:59:45;;;;;;;8.20;4.50;;;;;;;;;;5036555;28;20488;-82
2023/02/04 08:02:12;;;;;;;7.23;3.53;;;;;;;;;;5022758;28;20466;-81
2023/02/04 08:04:39;;;;;;;9.80;4.30;;;;;;;;;;5032772;28;20464;-82
2023/02/04 08:07:06;;;;;;;17.37;4.73;;;;;;;;;;5035950;28;20579;-83
2023/02/04 08:09:34;;;;;;;15.33;5.90;;;5.10;99.90;;;;;;5033545;28;20522;-83
2023/02/04 08:12:01;;;;;;;7.27;4.00;;;;;;;;;;5032164;28;20885;-83
2023/02/04 08:14:28;;;;;;;12.30;4.60;;;;;;;;;;5033502;28;20540;-80
2023/02/04 08:16:55;;;;;;;10.87;4.40;;;;;;;;;;5036204;28;20837;-81
2023/02/04 08:19:23;;;;;;;13.50;4.60;;;;;;;;;;5032937;28;20809;-82
2023/02/04 08:21:50;;;;;;;9.33;5.40;;;;;;;;;;5032886;28;21006;-82
2023/02/04 08:24:17;;;;;;;7.33;4.47;;;;;;;;;;5033402;28;20965;-82
2023/02/04 08:26:45;;;;;;;17.50;5.40;;;;;;;;;;5031940;28;20451;-84
2023/02/04 08:29:12;;;;;;;13.63;4.97;;;;;;;;;;5033219;28;20489;-83
2023/02/04 08:31:39;;;;;;;13.20;5.27;;;;;;;;;;5033305;28;20459;-82
2023/02/04 08:34:06;;;;;;;26.37;6.07;;;;;;;;;;5038452;28;20487;-80
2023/02/04 08:36:34;;;;;;;13.00;4.67;;;;;;;;;;5033134;28;20452;-82
2023/02/04 08:39:01;;;;;;;14.53;5.60;;;;;;;;;;5033290;28;20451;-78
2023/02/04 08:41:28;;;;;;;16.63;4.60;;;;;;;;;;5032967;28;20904;-80
2023/02/04 08:43:56;;;;;;;13.83;5.53;;;;;;;;;;5032019;28;20843;-82
2023/02/04 08:46:23;;;;;;;15.00;6.47;;;;;;;;;;5036102;28;20464;-80
2023/02/04 08:48:50;;;;;;;14.47;5.37;;;;;;;;;;5032885;28;20487;-81
2023/02/04 08:51:18;;;;;;;17.03;5.40;;;;;;;;;;5032873;28;20951;-81
2023/02/04 08:53:45;;;;;;;14.20;5.87;;;;;;;;;;5032758;28;20815;-82
2023/02/04 08:56:15;;;;;;;14.57;5.57;;;;;;;;;;5035100;28;20955;-85
2023/02/04 08:58:42;;;;;;;5.67;4.23;;;;;;;;;;5032882;28;20447;-82
2023/02/04 09:01:11;;;;;;;12.33;4.47;;;;;;;;;;5032713;28;20451;-84
2023/02/04 09:03:38;;;;;;;9.43;4.90;;;;;;;;;;5032627;28;20985;-82
2023/02/04 09:06:05;;;;;;;12.10;4.53;;;;;;;;;;5031198;28;20464;-80
2023/02/04 09:08:32;;;;;;;10.10;4.10;;;;;;;;;;5031264;28;20487;-82
2023/02/04 09:11:00;;;;;;;7.53;3.67;;;;;;;;;;5030902;28;20463;-84
2023/02/04 09:13:27;;;;;;;7.80;3.00;;;;;;;;;;5032384;28;20454;-84
2023/02/04 09:15:55;;;;;;;12.40;3.40;;;;;;;;;;5032238;28;20454;-84
2023/02/04 09:18:24;;;;;;;7.20;3.30;;;10.00;99.90;;;;;;5032795;28;20824;-84
2023/02/04 09:20:52;;;;;;;10.80;3.20;;;10.20;99.90;;;;;;5032102;28;20477;-83
2023/02/04 09:23:20;;;;;;;6.73;3.57;;;;;;;;;;5032868;28;20451;-83
2023/02/04 09:25:47;;;;;;;9.40;4.10;;;;;;;;;;5035593;28;20451;-84
2023/02/04 09:28:15;;;;;;;6.90;2.83;;;9.70;99.90;;;;;;5036682;28;20455;-85
2023/02/04 09:30:44;;;;;;;6.43;3.23;;;9.50;99.90;;;;;;5035338;28;21026;-81
2023/02/04 09:33:11;;;;;;;5.17;2.90;;;;;;;;;;5030891;28;20475;-83
2023/02/04 09:35:40;;;;;;;10.07;2.20;;;9.30;99.90;;;;;;5035393;28;20990;-82
2023/02/04 09:38:07;;;;;;;6.40;2.33;;;;;;;;;;5036599;28;20935;-80
2023/02/04 09:40:36;;;;;;;6.27;3.10;;;8.80;99.90;;;;;;5035281;28;20958;-83
2023/02/04 09:43:05;;;;;;;7.60;2.90;;;8.60;99.90;;;;;;5034983;28;20470;-82
2023/02/04 09:45:34;;;;;;;7.43;3.53;;;8.40;99.90;;;;;;5042290;28;20467;-82
2023/02/04 09:48:04;;;;;;;7.70;3.10;;;8.20;99.90;;;;;;5041129;28;20935;-82
2023/02/04 09:50:32;;;;;;;7.30;3.10;;;7.80;99.90;;;;;;5035211;28;20513;-86
2023/02/04 09:53:03;;;;;;;9.23;2.33;;;7.80;99.90;;;;;;5034410;28;20459;-83
2023/02/04 09:55:32;;;;;;;8.93;3.30;;;7.80;99.90;;;;;;5034178;28;20467;-81
2023/02/04 09:58:00;;;;;;;8.90;3.03;;;;;;;;;;5032609;28;20463;-83
2023/02/04 10:00:29;;;;;;;10.37;3.03;;;8.70;99.90;;;;;;5032334;28;20783;-82
2023/02/04 10:02:58;;;;;;;6.50;2.97;;;8.50;99.90;;;;;;5033459;28;20479;-83
2023/02/04 10:05:29;;;;;;;7.20;4.30;;;7.80;99.90;;;;;;5034501;28;20525;-87
2023/02/04 10:07:56;;;;;;;7.33;2.97;;;;;;;;;;5034062;28;20463;-86
2023/02/04 10:10:27;;;;;;;10.83;3.00;;;7.70;99.90;;;;;;5032312;28;20490;-84
2023/02/04 10:12:57;;;;;;;7.67;2.50;;;7.80;99.90;;;;;;5035434;28;20542;-87
2023/02/04 10:15:24;;;;;;;6.83;2.07;;;;;;;;;;5035785;28;20455;-87
2023/02/04 10:17:54;;;;;;;9.03;2.97;;;8.20;99.90;;;;;;5035708;28;20466;-88
2023/02/04 10:20:23;;;;;;;7.30;2.23;;;8.40;99.90;;;;;;5035332;28;20447;-87
2023/02/04 10:22:52;;;;;;;13.10;2.93;;;8.60;99.90;;;;;;5035586;28;20797;-83
2023/02/04 10:25:21;;;;;;;4.03;2.00;;;8.50;99.90;;;;;;5034291;28;20446;-84
2023/02/04 10:27:51;;;;;;;6.57;2.40;;;8.90;99.90;;;;;;5035491;28;20834;-83
2023/02/04 10:30:20;;;;;;;16.80;2.70;;;;;;;;;;5035340;28;20495;-86
2023/02/04 10:32:47;;;;;;;12.33;3.30;;;;;;;;;;5035385;28;20472;-83
2023/02/04 10:35:16;;;;;;;5.90;2.23;;;10.40;98.70;;;;;;5033949;28;20455;-84
2023/02/04 10:37:43;;;;;;;6.30;2.10;;;;;;;;;;5035220;28;20462;-88
2023/02/04 10:40:26;;;;;;;5.87;2.27;;;8.90;99.90;;;;;;5033861;28;20793;-88
2023/02/04 10:42:54;;;;;;;7.43;2.37;;;8.30;99.90;;;;;;5035394;28;20463;-82
2023/02/04 10:45:25;;;;;;;8.03;2.60;;;7.80;99.90;;;;;;5035253;28;21014;-85
2023/02/04 10:47:54;;;;;;;9.40;2.40;;;7.80;99.90;;;;;;5035197;28;20452;-86
2023/02/04 10:50:22;;;;;;;11.93;2.70;;;7.70;99.90;;;;;;5034997;28;20491;-86
2023/02/04 10:52:54;;;;;;;9.17;2.00;;;7.50;99.90;;;;;;5034979;28;20452;-87
2023/02/04 10:55:22;;;;;;;4.93;2.40;;;7.30;99.90;;;;;;5034052;28;20808;-88
2023/02/04 10:57:51;;;;;;;7.27;2.10;;;7.40;99.90;;;;;;5034752;28;20443;-87
2023/02/04 11:00:21;;;;;;;10.63;2.70;;;7.50;99.90;;;;;;5035188;28;20444;-90
2023/02/04 11:02:58;;;;;;;11.47;2.47;;;7.50;99.90;;;;;;5035085;28;20447;-87
2023/02/04 11:05:30;;;;;;;9.87;3.43;;;7.60;99.90;;;;;;5034922;28;20454;-83
2023/02/04 11:07:57;;;;;;;11.37;1.80;;;;;;;;;;5034639;28;20459;-77
2023/02/04 11:10:29;;;;;;;4.57;2.13;;;8.00;99.90;;;;;;5033395;28;20495;-77
2023/02/04 11:13:03;;;;;;;8.20;2.50;;;8.30;99.90;;;;;;5034509;28;20447;-78
2023/02/04 11:16:07;;;;;;;12.07;2.87;;;8.30;99.90;;;;;;5034394;28;20451;-86
2023/02/04 11:18:45;;;;;;;7.40;1.97;;;8.30;99.90;;;;;;5034597;28;20456;-82
2023/02/04 11:21:25;;;;;;;13.83;2.67;;;8.20;99.90;;;;;;5034289;28;20482;-79
2023/02/04 11:24:03;;;;;;;5.00;1.90;;;;;;;;;;5034313;28;20466;-82
2023/02/04 11:26:35;;;;;;;8.23;2.73;;;8.00;99.90;;;;;;5033014;28;20448;-78
2023/02/04 11:29:24;;;;;;;8.30;2.80;;;7.70;99.90;;;;;;5034192;28;20451;-78
2023/02/04 11:32:02;;;;;;;4.63;2.40;;;7.30;99.90;;;;;;5034209;28;20471;-86
2023/02/04 11:34:31;;;;;;;6.80;2.83;;;7.10;99.90;;;;;;5034179;28;20454;-79
2023/02/04 11:37:12;;;;;;;13.10;3.37;;;7.10;99.90;;;;;;5034133;28;20458;-78
2023/02/04 11:39:41;;;;;;;14.70;3.33;;;7.30;99.90;;;;;;5034072;28;20458;-75
2023/02/04 11:42:18;;;;;;;6.30;2.60;;;7.30;99.90;;;;;;5032733;28;20452;-75
2023/02/04 11:44:49;;;;;;;11.93;3.30;;;7.10;99.90;;;;;;5033857;28;20451;-77
2023/02/04 11:47:18;;;;;;;10.40;4.03;;;6.90;99.90;;;;;;5033558;28;20492;-78
2023/02/04 11:49:48;;;;;;;11.83;4.00;;;6.90;99.90;;;;;;5033666;28;20491;-77
2023/02/04 11:52:15;;;;;;;10.43;2.90;;;;;;;;;;5033662;28;20907;-77
2023/02/04 11:54:42;;;;;;;13.67;4.00;;;;;;;;;;5033791;28;20517;-77
2023/02/04 11:57:11;;;;;;;6.30;2.60;;;7.20;99.90;;;;;;5032540;28;20816;-79
2023/02/04 11:59:38;;;;;;;8.93;4.13;;;;;;;;;;5033181;28;20443;-77
2023/02/04 12:02:13;;;;;;;10.30;4.07;;;7.10;99.90;;;;;;5033432;28;20448;-77
2023/02/04 12:04:51;;;;;;;7.43;2.90;;;7.40;99.90;;;;;;5032077;28;20474;-77
2023/02/04 12:07:23;;;;;;;13.73;3.17;;;7.50;99.90;;;;;;5012031;28;20522;-77
2023/02/04 12:09:51;;;;;;;9.27;2.20;;;7.50;99.90;;;;;;5026116;28;20475;-77
2023/02/04 12:12:24;;;;;;;8.93;2.07;;;7.50;99.90;;;;;;5031751;28;20945;-76
2023/02/04 12:14:58;;;;;;;18.50;3.47;;;7.30;99.90;;;;;;5032523;28;20455;-76
2023/02/04 12:17:25;;;;;;;9.47;2.93;;;;;;;;;;5028444;28;20459;-76
2023/02/04 12:19:54;;;;;;;8.80;2.60;;;7.70;99.90;;;;;;5032410;28;20821;-77
2023/02/04 12:22:21;;;;;;;12.80;2.27;;;;;;;;;;5032443;28;20491;-77
2023/02/04 12:24:48;;;;;;;13.10;2.70;;;;;;;;;;5031718;28;20452;-76
2023/02/04 12:27:17;;;;;;;7.57;2.23;;;;;;;;;;5029460;28;20490;-76
2023/02/04 12:29:44;;;;;;;13.27;3.30;;;;;;;;;;5032386;28;20507;-76
2023/02/04 12:32:11;;;;;;;6.73;2.10;;;;;;;;;;5033000;28;20470;-76
2023/02/04 12:34:38;;;;;;;6.40;2.20;;;;;;;;;;5032913;28;20454;-76
2023/02/04 12:37:06;;;;;;;5.83;2.10;;;8.70;98.70;;;;;;5031889;28;20542;-77
2023/02/04 12:39:33;;;;;;;4.60;1.60;;;;;;;;;;5033019;28;20455;-76
2023/02/04 12:42:00;;;;;;;9.03;2.40;;;;;;;;;;5030926;28;20463;-76
2023/02/04 12:44:27;;;;;;;11.07;1.87;;;;;;;;;;5033106;28;20966;-75
2023/02/04 12:46:54;;;;;;;13.07;2.17;;;;;;;;;;5030971;28;20468;-75
2023/02/04 12:49:23;;;;;;;4.83;2.00;;;;;;;;;;5031479;28;20464;-74
2023/02/04 12:51:50;;;;;;;8.10;2.07;;;8.50;99.90;;;;;;5032470;28;20456;-75
2023/02/04 12:54:18;;;;;;;9.07;1.87;;;8.30;97.80;;;;;;5032192;28;20514;-77
2023/02/04 12:56:45;;;;;;;4.13;1.60;;;;;;;;;;5030903;28;20468;-75
2023/02/04 12:59:12;;;;;;;6.47;1.53;;;;;;;;;;5032053;28;20439;-75
2023/02/04 13:01:39;;;;;;;13.00;2.53;;;;;;;;;;5032773;28;20458;-76
2023/02/04 13:04:06;;;;;;;7.70;1.73;;;;;;;;;;5032721;28;20447;-80
2023/02/04 13:06:33;;;;;;;7.13;1.80;;;8.00;99.90;;;;;;5032079;28;20477;-74
2023/02/04 13:09:00;;;;;;;12.80;2.27;;;;;;;;;;5032568;28;20440;-76
2023/02/04 13:11:28;;;;;;;5.57;2.73;;;8.10;99.20;;;;;;5030807;28;21006;-75
2023/02/04 13:13:55;;;;;;;7.53;1.63;;;;;;;;;;5031778;28;20456;-76
2023/02/04 13:16:23;;;;;;;7.40;2.40;;;;;;;;;;5032515;28;20458;-75
2023/02/04 13:18:50;;;;;;;5.67;1.70;;;;;;;;;;5032500;28;20451;-75
2023/02/04 13:21:17;;;;;;;7.30;1.70;;;;;;;;;;5032384;28;21009;-76
2023/02/04 13:23:44;;;;;;;4.80;1.80;;;;;;;;;;5032415;28;20783;-76
2023/02/04 13:26:12;;;;;;;7.30;1.60;;;;;;;;;;5030872;28;20835;-77
2023/02/04 13:28:41;;;;;;;6.10;1.87;;;8.30;97.80;;;;;;5030621;28;20834;-76
2023/02/04 13:31:08;;;;;;;5.40;1.90;;;;;;;;;;5032123;28;20577;-77
2023/02/04 13:33:35;;;;;;;7.30;1.87;;;;;;;;;;5032297;28;20486;-76
2023/02/04 13:36:02;;;;;;;9.10;2.00;;;;;;;;;;5029450;28;20975;-76
2023/02/04 13:38:29;;;;;;;9.63;1.70;;;;;;;;;;5032441;28;20451;-76
2023/02/04 13:40:56;;;;;;;7.93;1.87;;;;;;;;;;5031388;28;20810;-76
2023/02/04 13:43:23;;;;;;;10.20;1.53;;;8.10;99.90;;;;;;5032228;28;20542;-76
2023/02/04 13:45:51;;;;;;;7.80;1.40;;;8.00;99.90;;;;;;5032288;28;20462;-76
2023/02/04 13:48:18;;;;;;;8.80;1.73;;;;;;;;;;5033236;28;20454;-77
2023/02/04 13:50:46;;;;;;;7.50;1.93;;;;;;;;;;5032545;28;20494;-76
2023/02/04 13:53:13;;;;;;;5.60;1.60;;;;;;;;;;5029379;28;20462;-76
2023/02/04 13:55:40;;;;;;;6.93;2.23;;;;;;;;;;5030777;28;20444;-76
2023/02/04 13:58:07;;;;;;;5.60;1.90;;;;;;;;;;5024141;28;20449;-76
2023/02/04 14:00:34;;;;;;;10.63;2.47;;;;;;;;;;5024728;28;20467;-76
2023/02/04 14:03:02;;;;;;;4.70;1.90;;;9.30;98.10;;;;;;5032141;28;20530;-76
2023/02/04 14:05:29;;;;;;;4.03;1.93;;;;;;;;;;5031727;28;21041;-76
2023/02/04 14:07:56;;;;;;;4.63;2.00;;;9.50;99.90;;;;;;5031949;28;20451;-76